Time;durP1;ratioP1;P1;durP2;ratioP2;P2;SDS_P1;SDS_P2;PMS_P1;PMS_P2;Temp;Humidity;BMP_temperature;BMP_pressure;BME280_temperature;BME280_humidity;BME280_pressure;Samples;Min_cycle;Max_cycle;Signal;HPM_P1;HPM_P2
2022/06/22 00:00:58;;;;;;;7.32;3.13;;;;;;;16.05;62.84;99597.19;6249334;23;20003;-79
2022/06/22 00:03:23;;;;;;;11.60;3.50;;;;;;;15.85;63.86;99588.16;6249405;23;20000;-78
2022/06/22 00:05:52;;;;;;;6.95;2.65;;;;;;;15.93;63.65;99595.72;6249030;23;20018;-79
2022/06/22 00:08:25;;;;;;;7.28;2.10;;;;;;;16.13;63.00;99590.94;6248721;23;20337;-78
2022/06/22 00:10:55;;;;;;;7.55;2.85;;;;;;;16.16;62.07;99584.03;6249466;23;20023;-78
2022/06/22 00:13:23;;;;;;;7.47;3.70;;;;;;;16.16;62.46;99590.34;6249703;23;20023;-79
2022/06/22 00:16:04;;;;;;;12.13;3.63;;;;;;;15.90;62.98;99582.59;6248702;23;20053;-79
2022/06/22 00:18:45;;;;;;;9.15;2.78;;;;;;;15.82;63.96;99577.78;6248571;23;20464;-79
2022/06/22 00:21:13;;;;;;;7.40;3.00;;;;;;;15.63;64.42;99584.19;6249013;23;19992;-79
2022/06/22 00:23:41;;;;;;;4.93;2.72;;;;;;;15.58;66.17;99581.56;6248574;23;20418;-79
2022/06/22 00:26:25;;;;;;;5.47;3.47;;;;;;;15.73;66.01;99575.75;6248456;23;20301;-79
2022/06/22 00:29:05;;;;;;;12.43;3.58;;;;;;;15.56;66.50;99581.03;6248956;23;20006;-79
2022/06/22 00:31:42;;;;;;;7.25;4.43;;;;;;;15.42;66.78;99578.28;6248852;23;20046;-79
2022/06/22 00:34:11;;;;;;;8.02;3.95;;;;;;;15.53;66.64;99574.22;6248131;23;20000;-79
2022/06/22 00:36:39;;;;;;;8.93;3.17;;;;;;;15.55;66.18;99579.38;6248716;23;20071;-78
2022/06/22 00:39:27;;;;;;;11.75;3.47;;;;;;;15.52;66.28;99578.88;6248706;23;20000;-78
2022/06/22 00:42:15;;;;;;;11.93;4.22;;;;;;;15.57;66.20;99563.41;6236250;23;20007;-78
2022/06/22 00:44:47;;;;;;;6.50;3.63;;;;;;;15.68;65.93;99553.84;6248106;23;20004;-79
2022/06/22 00:47:34;;;;;;;9.35;4.00;;;;;;;15.78;66.31;99557.53;6248203;23;20007;-78
2022/06/22 00:50:12;;;;;;;9.45;3.97;;;;;;;15.80;66.21;99555.31;6221950;23;20279;-79
2022/06/22 00:52:41;;;;;;;9.98;4.35;;;;;;;15.74;66.57;99557.34;6249368;23;20011;-79
2022/06/22 00:55:21;;;;;;;11.63;5.22;;;;;;;15.52;67.62;99556.09;6248796;23;20031;-78
2022/06/22 00:57:53;;;;;;;18.00;5.82;;;;;;;15.40;68.02;99568.38;6248549;23;20356;-79
2022/06/22 01:00:22;;;;;;;14.70;5.70;;;;;;;15.42;68.16;99559.84;6248953;23;20004;-78
2022/06/22 01:02:58;;;;;;;10.15;5.38;;;;;;;15.28;68.85;99557.88;6247812;23;20058;-79
2022/06/22 01:05:37;;;;;;;10.75;4.57;;;;;;;15.31;68.87;99550.16;6248037;23;19996;-78
2022/06/22 01:08:29;;;;;;;11.35;4.93;;;;;;;15.07;69.82;99560.19;6248888;23;20004;-79
2022/06/22 01:12:16;;;;;;;17.52;4.80;;;;;;;15.00;70.22;99559.72;6248896;23;19993;-78
2022/06/22 01:14:01;;;;;;;8.93;4.55;;;;;;;15.13;69.72;99561.69;6247513;23;20007;-79
2022/06/22 01:16:30;;;;;;;15.68;5.75;;;;;;;14.92;70.45;99550.25;6248747;23;20031;-79
2022/06/22 01:19:02;;;;;;;14.15;5.75;;;;;;;14.79;70.63;99544.38;6247558;23;19992;-79
2022/06/22 01:21:34;;;;;;;9.77;4.38;;;;;;;15.04;69.46;99542.38;6221596;23;19996;-79
2022/06/22 01:24:31;;;;;;;11.27;4.47;;;;;;;14.92;69.66;99545.59;6247679;23;20018;-78
2022/06/22 01:27:21;;;;;;;14.75;4.35;;;;;;;14.94;69.60;99542.53;6228038;23;20008;-79
2022/06/22 01:29:50;;;;;;;11.00;4.82;;;;;;;14.83;70.12;99533.66;6248067;23;19996;-79
2022/06/22 01:32:21;;;;;;;13.05;5.70;;;;;;;14.89;69.75;99534.41;6221162;23;20007;-79
2022/06/22 01:34:47;;;;;;;11.45;6.03;;;;;;;14.85;69.78;99545.13;6221858;23;20019;-78
2022/06/22 01:37:23;;;;;;;16.48;7.97;;;;;;;14.85;69.82;99539.66;6247866;23;20474;-79
2022/06/22 01:39:49;;;;;;;13.80;7.68;;;;;;;14.75;69.84;99546.09;6247729;23;20450;-78
2022/06/22 01:42:27;;;;;;;9.63;5.22;;;;;;;14.54;70.93;99546.38;6247847;23;20027;-78
2022/06/22 01:45:01;;;;;;;11.35;6.30;;;;;;;14.27;71.80;99542.41;6248486;23;20000;-78
2022/06/22 01:47:39;;;;;;;;;;;;;;;14.54;71.34;99535.41;6249275;23;20008;-78
2022/06/22 01:50:15;;;;;;;21.55;5.90;;;;;;;14.68;70.99;99521.78;6248172;23;19925;-78
2022/06/22 01:52:51;;;;;;;9.85;4.63;;;;;;;14.78;71.56;99512.56;6248330;23;20011;-78
2022/06/22 01:55:25;;;;;;;12.20;5.07;;;;;;;14.74;71.65;99522.53;6251139;23;20059;-78
2022/06/22 01:58:29;;;;;;;14.38;5.53;;;;;;;14.69;71.46;99530.81;6248830;23;20426;-78
2022/06/22 02:01:12;;;;;;;9.20;5.33;;;;;;;14.53;72.53;99531.06;6248169;23;20000;-79
2022/06/22 02:03:51;;;;;;;10.88;5.53;;;;;;;14.35;73.31;99535.44;6247728;23;20000;-79
2022/06/22 02:09:20;;;;;;;11.45;5.43;;;;;;;14.27;73.40;99531.44;6247366;23;20026;-79
2022/06/22 02:11:51;;;;;;;14.65;5.03;;;;;;;13.92;74.29;99533.50;6247926;23;20000;-79
2022/06/22 02:14:22;;;;;;;11.23;4.80;;;;;;;14.10;73.74;99537.41;6247922;23;20007;-78
2022/06/22 02:16:53;;;;;;;11.80;5.38;;;;;;;14.22;74.45;99545.19;6247150;23;20418;-78
2022/06/22 02:19:20;;;;;;;11.15;4.00;;;;;;;14.41;75.51;99536.16;6247468;23;20008;-78
2022/06/22 02:21:49;;;;;;;8.32;4.40;;;;;;;14.45;75.69;99535.28;6247153;23;19996;-79
2022/06/22 02:24:29;;;;;;;8.43;4.22;;;;;;;14.31;76.16;99537.97;6248087;23;20000;-78
2022/06/22 02:27:02;;;;;;;8.45;3.60;;;;;;;14.22;75.95;99546.00;6248108;23;20000;-79
2022/06/22 02:29:56;;;;;;;7.72;3.65;;;;;;;14.22;76.04;99546.00;6246948;23;20318;-79
2022/06/22 02:32:27;;;;;;;10.33;4.23;;;;;;;13.95;77.17;99557.63;6247244;23;20024;-79
2022/06/22 02:34:55;;;;;;;9.30;3.95;;;;;;;14.11;75.93;99560.97;6247385;23;19992;-78
2022/06/22 02:37:23;;;;;;;9.73;4.03;;;;;;;14.10;75.13;99562.91;6247468;23;20004;-79
2022/06/22 02:39:53;;;;;;;13.02;5.00;;;;;;;14.03;75.56;99559.72;6247886;23;19996;-78
2022/06/22 02:45:07;;;;;;;12.48;4.57;;;;;;;13.62;75.92;99555.50;6247759;23;20026;-78
2022/06/22 02:47:48;;;;;;;7.40;4.07;;;;;;;13.59;76.08;99559.63;6246748;23;20026;-78
2022/06/22 02:50:28;;;;;;;9.55;4.53;;;;;;;13.43;76.32;99548.81;6247210;23;19996;-78
2022/06/22 02:52:59;;;;;;;10.68;4.28;;;;;;;13.53;75.45;99541.59;6247161;23;19996;-78
2022/06/22 02:55:29;;;;;;;18.83;10.10;;;;;;;13.55;75.51;99528.47;6247556;23;20348;-79
2022/06/22 02:57:56;;;;;;;12.35;6.43;;;;;;;13.66;75.08;99523.69;6246768;23;20008;-78
2022/06/22 03:00:41;;;;;;;12.02;5.00;;;;;;;13.96;74.18;99515.38;6247703;23;20057;-78
2022/06/22 03:03:09;;;;;;;9.95;5.45;;;;;;;14.06;73.24;99520.72;6247517;23;20030;-79
2022/06/22 03:05:37;;;;;;;8.93;5.00;;;;;;;14.23;72.56;99509.28;6247651;23;20007;-78
2022/06/22 03:08:03;;;;;;;9.13;4.10;;;;;;;14.31;72.14;99498.75;6246613;23;20353;-78
2022/06/22 03:10:41;;;;;;;9.45;4.45;;;;;;;14.41;71.36;99495.84;6247032;23;20117;-79
2022/06/22 03:13:10;;;;;;;10.45;4.10;;;;;;;14.39;71.37;99505.47;6247056;23;20003;-78
2022/06/22 03:15:37;;;;;;;10.27;4.90;;;;;;;14.35;71.03;99514.31;6247668;23;20023;-79
2022/06/22 03:18:04;;;;;;;13.38;4.82;;;;;;;14.20;71.47;99520.00;6246923;23;20004;-79
2022/06/22 03:20:41;;;;;;;11.43;5.47;;;;;;;13.96;71.94;99531.81;6246460;23;20000;-79
2022/06/22 03:23:22;;;;;;;17.25;8.32;;;;;;;13.85;72.95;99547.59;6247330;23;20026;-79
2022/06/22 03:25:53;;;;;;;14.10;7.50;;;;;;;13.67;73.30;99540.94;6247227;23;20004;-78
2022/06/22 03:28:27;;;;;;;12.25;6.82;;;;;;;13.71;73.32;99548.28;6247025;23;20084;-79
2022/06/22 03:30:59;;;;;;;14.35;5.38;;;;;;;13.84;72.91;99551.44;6246951;23;20010;-78
2022/06/22 03:33:48;;;;;;;11.27;6.05;;;;;;;13.91;72.67;99551.09;6246832;23;20061;-78
2022/06/22 03:36:21;;;;;;;9.48;4.75;;;;;;;14.06;71.91;99533.63;6246517;23;20012;-79
2022/06/22 03:38:52;;;;;;;13.18;6.32;;;;;;;14.21;71.36;99529.88;6247749;23;20020;-78
2022/06/22 03:41:24;;;;;;;13.52;3.95;;;;;;;14.41;70.11;99519.72;6220115;23;20019;-79
2022/06/22 03:44:11;;;;;;;14.82;4.90;;;;;;;14.29;69.99;99526.47;6247214;23;20066;-78
2022/06/22 03:46:45;;;;;;;10.57;3.95;;;;;;;14.31;70.32;99518.75;6247136;23;20019;-78
2022/06/22 03:49:31;;;;;;;10.50;3.90;;;;;;;14.36;70.26;99521.41;6247148;23;20023;-79
2022/06/22 03:52:07;;;;;;;11.15;5.53;;;;;;;14.41;70.74;99517.78;6247125;23;20000;-79
2022/06/22 03:54:44;;;;;;;8.98;4.75;;;;;;;14.38;71.02;99503.88;6247419;23;20000;-79
2022/06/22 03:57:14;;;;;;;11.23;5.25;;;;;;;14.42;71.95;99504.91;6246639;23;20011;-78
2022/06/22 03:59:42;;;;;;;7.38;4.40;;;;;;;14.39;72.84;99497.25;6247099;23;20007;-78
2022/06/22 04:02:09;;;;;;;13.18;4.30;;;;;;;14.50;72.83;99500.69;6246685;23;20071;-78
2022/06/22 04:04:36;;;;;;;10.35;5.35;;;;;;;14.56;72.52;99504.97;6246995;23;20302;-78
2022/06/22 04:07:01;;;;;;;11.93;6.30;;;;;;;14.50;72.37;99501.50;6247391;23;19992;-79
2022/06/22 04:09:28;;;;;;;11.30;4.20;;;;;;;14.55;72.12;99506.88;6246204;23;20367;-78
2022/06/22 04:12:09;;;;;;;15.82;5.75;;;;;;;14.56;72.18;99507.72;6246294;23;20067;-78
2022/06/22 04:14:42;;;;;;;14.10;5.75;;;;;;;14.59;72.03;99505.19;6247006;23;19996;-78
2022/06/22 04:17:20;;;;;;;12.90;5.85;;;;;;;14.70;71.58;99510.50;6247379;23;19992;-79
2022/06/22 04:20:00;;;;;;;18.33;8.00;;;;;;;14.68;71.64;99515.47;6247238;23;20024;-79
2022/06/22 04:22:28;;;;;;;12.48;7.63;;;;;;;14.79;71.69;99505.13;6247348;23;20015;-79
2022/06/22 04:25:14;;;;;;;27.83;9.90;;;;;;;14.92;71.51;99503.59;6246791;23;20015;-78
2022/06/22 04:27:44;;;;;;;15.55;7.68;;;;;;;14.98;71.28;99498.81;6246994;23;20004;-78
2022/06/22 04:30:18;;;;;;;14.10;7.07;;;;;;;15.02;70.87;99508.09;6247039;23;19996;-79
2022/06/22 04:33:17;;;;;;;14.40;4.97;;;;;;;15.02;69.50;99511.66;6246738;23;20057;-79
2022/06/22 04:35:56;;;;;;;12.05;5.60;;;;;;;15.25;68.58;99520.06;6247626;23;20050;-79
2022/06/22 04:38:30;;;;;;;8.38;4.53;;;;;;;15.42;68.15;99523.34;6248015;23;20008;-79
2022/06/22 04:41:07;;;;;;;7.53;4.32;;;;;;;15.41;67.90;99514.28;6248417;23;20071;-78
2022/06/22 04:43:34;;;;;;;9.80;4.43;;;;;;;15.48;67.20;99516.59;6249155;23;20036;-79
2022/06/22 04:46:00;;;;;;;11.10;4.25;;;;;;;15.68;66.90;99518.13;6248374;23;20054;-78
2022/06/22 04:48:37;;;;;;;12.20;5.43;;;;;;;15.76;66.21;99520.16;6249379;23;20000;-78
2022/06/22 04:51:06;;;;;;;16.83;5.38;;;;;;;15.91;65.97;99523.72;6248361;23;20075;-78
2022/06/22 04:53:38;;;;;;;11.57;5.00;;;;;;;15.91;66.17;99529.22;6248274;23;20279;-78
2022/06/22 04:56:07;;;;;;;10.85;5.88;;;;;;;15.94;65.92;99528.63;6247859;23;20049;-78
2022/06/22 04:59:04;;;;;;;9.18;5.25;;;;;;;16.06;65.14;99527.31;6248892;23;20015;-78
2022/06/22 05:01:51;;;;;;;14.55;4.68;;;;;;;15.82;66.66;99537.41;6228220;23;20083;-79
2022/06/22 05:04:26;;;;;;;10.80;5.32;;;;;;;15.89;66.04;99542.47;6248206;23;19996;-79
2022/06/22 05:07:13;;;;;;;7.80;3.90;;;;;;;15.90;65.73;99535.84;6248489;23;20031;-79
2022/06/22 05:09:48;;;;;;;9.50;4.00;;;;;;;15.95;64.92;99541.25;6248422;23;20004;-79
2022/06/22 05:12:18;;;;;;;6.72;3.25;;;;;;;15.96;64.95;99547.56;6247831;23;19996;-79
2022/06/22 05:14:44;;;;;;;12.25;4.03;;;;;;;16.07;64.92;99554.50;6221811;23;20365;-78
2022/06/22 05:17:21;;;;;;;10.38;3.95;;;;;;;16.06;64.94;99563.06;6247683;23;20030;-79
2022/06/22 05:19:57;;;;;;;8.35;4.30;;;;;;;16.07;64.99;99561.91;6249231;23;20264;-78
2022/06/22 05:22:23;;;;;;;7.20;3.28;;;;;;;16.13;65.61;99562.66;6248953;23;19992;-79
2022/06/22 05:24:54;;;;;;;11.25;3.85;;;;;;;16.20;65.07;99557.53;6248383;23;20075;-79
2022/06/22 05:27:24;;;;;;;10.20;4.82;;;;;;;16.27;64.72;99568.91;6248686;23;19993;-79
2022/06/22 05:29:56;;;;;;;13.38;5.88;;;;;;;16.34;64.56;99574.00;6248780;23;20018;-79
2022/06/22 05:32:30;;;;;;;7.82;4.00;;;;;;;16.43;65.37;99579.63;6248668;23;20004;-78
2022/06/22 05:34:57;;;;;;;19.08;6.57;;;;;;;16.39;64.07;99579.41;6247926;23;20003;-79
2022/06/22 05:37:28;;;;;;;13.70;3.78;;;;;;;16.42;63.44;99576.03;6248197;23;20014;-79
2022/06/22 05:39:56;;;;;;;7.72;3.78;;;;;;;16.37;63.12;99573.41;6248059;23;20004;-79
2022/06/22 05:42:21;;;;;;;9.73;4.68;;;;;;;16.44;63.71;99578.47;6248083;23;20000;-79
2022/06/22 05:44:46;;;;;;;6.97;3.93;;;;;;;16.65;62.58;99583.53;6247762;23;19996;-78
2022/06/22 05:47:22;;;;;;;7.47;4.88;;;;;;;16.63;62.39;99585.78;6247319;23;20209;-78
2022/06/22 05:49:56;;;;;;;11.38;4.50;;;;;;;16.69;62.55;99582.59;6248011;23;19992;-79
2022/06/22 05:52:39;;;;;;;10.85;4.50;;;;;;;16.74;62.30;99575.34;6248522;23;20003;-78
2022/06/22 05:55:22;;;;;;;7.65;4.05;;;;;;;16.67;62.88;99582.09;6248410;23;20011;-79
2022/06/22 05:57:56;;;;;;;13.98;5.88;;;;;;;16.79;63.50;99584.31;6247645;23;20123;-79
2022/06/22 06:00:26;;;;;;;13.20;5.55;;;;;;;16.80;63.06;99585.13;6248299;23;20409;-79
2022/06/22 06:03:16;;;;;;;13.45;7.38;;;;;;;16.88;62.49;99587.09;6248301;23;20079;-79
2022/06/22 06:05:48;;;;;;;12.27;5.50;;;;;;;16.88;62.37;99586.31;6248241;23;20000;-78
2022/06/22 06:08:23;;;;;;;21.15;5.68;;;;;;;16.87;63.34;99585.50;6248122;23;20000;-88
2022/06/22 06:10:49;;;;;;;14.43;5.50;;;;;;;16.74;63.27;99587.16;6249245;23;20020;-89
2022/06/22 06:13:26;;;;;;;19.33;5.78;;;;;;;16.75;63.75;99588.78;6249086;23;20022;-89
2022/06/22 06:15:55;;;;;;;10.95;4.95;;;;;;;16.77;64.01;99593.97;6248988;23;20003;-89
2022/06/22 06:18:25;;;;;;;8.27;4.55;;;;;;;16.92;63.37;99610.13;6249274;23;20008;-88
2022/06/22 06:21:06;;;;;;;21.00;6.32;;;;;;;17.02;64.76;99597.25;6247815;23;20000;-79
2022/06/22 06:23:40;;;;;;;10.90;5.63;;;;;;;17.37;62.56;99596.72;6248149;23;20023;-79
2022/06/22 06:29:13;;;;;;;11.35;5.25;;;;;;;17.60;61.86;99577.38;6247251;23;20009;-79
2022/06/22 06:32:08;;;;;;;13.05;5.05;;;;;;;17.55;61.42;99586.59;6247751;23;20000;-79
2022/06/22 06:34:43;;;;;;;9.93;4.63;;;;;;;17.34;61.98;99578.06;6247715;23;20039;-78
2022/06/22 06:37:20;;;;;;;9.82;5.55;;;;;;;17.47;62.08;99590.13;6247719;23;20073;-79
2022/06/22 06:39:48;;;;;;;22.63;6.82;;;;;;;17.70;62.21;99584.53;6247585;23;20007;-78
2022/06/22 06:42:17;;;;;;;16.67;6.32;;;;;;;17.76;61.17;99577.75;6247559;23;20075;-78
2022/06/22 06:44:44;;;;;;;9.30;4.68;;;;;;;17.73;60.81;99575.66;6247133;23;20004;-78
2022/06/22 06:47:15;;;;;;;13.50;5.57;;;;;;;17.74;60.79;99585.53;6247900;23;19992;-79
2022/06/22 06:49:48;;;;;;;13.57;5.53;;;;;;;17.74;60.36;99586.34;6247593;23;20356;-78
2022/06/22 06:52:32;;;;;;;8.82;5.45;;;;;;;17.66;60.85;99580.78;6246858;23;20011;-83
2022/06/22 06:55:15;;;;;;;;;;;;;;;17.69;60.85;99578.25;6248544;23;20019;-83
2022/06/22 06:57:52;;;;;;;11.93;4.57;;;;;;;17.79;60.58;99568.88;6247601;23;19952;-83
2022/06/22 07:00:18;;;;;;;9.93;4.72;;;;;;;17.74;61.36;99569.00;6247103;23;19996;-84
2022/06/22 07:02:44;;;;;;;9.05;4.32;;;;;;;17.79;60.95;99574.38;6247616;23;20007;-84
2022/06/22 07:05:18;;;;;;;6.68;3.17;;;;;;;18.03;60.15;99572.34;6247093;23;20015;-86
2022/06/22 07:07:51;;;;;;;5.97;3.22;;;;;;;18.01;60.05;99564.41;6248451;23;20405;-85
2022/06/22 07:10:23;;;;;;;6.95;3.60;;;;;;;18.20;59.63;99563.34;6247803;23;19996;-85
2022/06/22 07:12:57;;;;;;;7.30;3.88;;;;;;;18.13;60.11;99562.94;6247766;23;19997;-85
2022/06/22 07:15:28;;;;;;;7.18;2.70;;;;;;;18.19;59.48;99556.19;6248550;23;20000;-85
2022/06/22 07:17:59;;;;;;;7.05;3.90;;;;;;;18.24;58.90;99556.03;6248439;23;20000;-84
2022/06/22 07:20:30;;;;;;;13.52;4.22;;;;;;;18.30;58.98;99546.47;6247601;23;20416;-84
2022/06/22 07:23:20;;;;;;;6.25;2.95;;;;;;;18.34;58.59;99548.59;6248198;23;20345;-84
2022/06/22 07:25:52;;;;;;;6.03;3.30;;;;;;;18.41;58.81;99558.00;6247824;23;20004;-84
2022/06/22 07:28:36;;;;;;;8.68;4.28;;;;;;;18.46;58.22;99557.03;6248407;23;20026;-83
2022/06/22 07:31:15;;;;;;;6.50;3.55;;;;;;;18.56;58.44;99555.91;6248020;23;19996;-85
2022/06/22 07:33:50;;;;;;;6.55;4.22;;;;;;;18.60;58.51;99561.59;6247489;23;20004;-83
2022/06/22 07:36:28;;;;;;;9.05;3.38;;;;;;;18.57;58.45;99553.97;6247937;23;20053;-84
2022/06/22 07:39:21;;;;;;;7.95;3.75;;;;;;;18.57;57.83;99548.44;6248065;23;20035;-84
2022/06/22 07:41:46;;;;;;;10.23;4.70;;;;;;;18.63;57.79;99539.66;6237786;23;20004;-83
2022/06/22 07:44:18;;;;;;;9.50;3.90;;;;;;;18.85;57.88;99545.34;6247689;23;20130;-83
2022/06/22 07:46:58;;;;;;;16.67;5.53;;;;;;;18.85;57.20;99548.09;6247865;23;20012;-84
2022/06/22 07:49:28;;;;;;;10.05;3.88;;;;;;;18.89;56.62;99546.31;6247130;23;20406;-81
2022/06/22 07:51:57;;;;;;;10.32;3.78;;;;;;;19.02;56.94;99538.97;6247661;23;20065;-84
2022/06/22 07:54:53;;;;;;;10.38;3.40;;;;;;;19.09;56.42;99538.47;6247826;23;20004;-83
2022/06/22 07:57:33;;;;;;;9.07;3.53;;;;;;;19.28;55.52;99537.34;6228504;23;20023;-84
2022/06/22 08:00:05;;;;;;;8.82;3.00;;;;;;;19.30;55.86;99535.06;6247920;23;20282;-83
2022/06/22 08:02:45;;;;;;;13.02;4.38;;;;;;;19.37;55.53;99529.81;6247902;23;19992;-84
2022/06/22 08:05:15;;;;;;;8.10;3.03;;;;;;;19.47;55.94;99526.69;6247758;23;20021;-84
2022/06/22 08:07:50;;;;;;;9.90;3.47;;;;;;;19.53;56.33;99526.50;6247343;23;19996;-84
2022/06/22 08:10:39;;;;;;;5.57;2.63;;;;;;;19.59;55.83;99527.94;6247847;23;19996;-84
2022/06/22 08:13:13;;;;;;;8.98;2.88;;;;;;;19.60;55.34;99526.81;6248533;23;20027;-83
2022/06/22 08:15:45;;;;;;;6.28;3.13;;;;;;;19.72;55.44;99542.69;6249740;23;20003;-84
2022/06/22 08:18:10;;;;;;;6.40;2.78;;;;;;;19.78;55.07;99546.06;6249957;23;20000;-83
2022/06/22 08:20:39;;;;;;;6.50;3.10;;;;;;;19.86;55.01;99556.28;6248614;23;20361;-83
2022/06/22 08:23:11;;;;;;;8.68;3.55;;;;;;;20.02;54.39;99556.53;6248831;23;20000;-83
2022/06/22 08:25:44;;;;;;;10.65;4.47;;;;;;;19.94;53.24;99549.91;6249334;23;20004;-82
2022/06/22 08:28:17;;;;;;;6.85;3.22;;;;;;;20.10;53.53;99548.53;6248818;23;20003;-83
2022/06/22 08:30:42;;;;;;;5.50;3.28;;;;;;;20.15;52.98;99546.41;6249120;23;20075;-83
2022/06/22 08:33:13;;;;;;;6.00;2.55;;;;;;;20.37;52.57;99544.47;6249179;23;20071;-83
2022/06/22 08:36:00;;;;;;;6.40;2.60;;;;;;;20.54;52.67;99548.25;6249515;23;20084;-84
2022/06/22 08:38:31;;;;;;;9.23;3.10;;;;;;;20.50;52.77;99542.56;6249689;23;20000;-84
2022/06/22 08:41:18;;;;;;;8.07;3.95;;;;;;;20.72;52.53;99560.00;6250057;23;20050;-83
2022/06/22 08:44:13;;;;;;;12.65;3.55;;;;;;;20.79;52.48;99556.66;6249575;23;20095;-83
2022/06/22 08:46:38;;;;;;;4.13;2.88;;;;;;;20.76;52.31;99555.41;6222710;23;20035;-84
2022/06/22 08:49:32;;;;;;;9.67;3.30;;;;;;;20.85;52.31;99557.25;6249496;23;20004;-83
2022/06/22 08:52:17;;;;;;;8.52;3.00;;;;;;;20.96;52.30;99558.47;6237475;23;20003;-84
2022/06/22 08:55:00;;;;;;;20.23;3.15;;;;;;;21.09;50.97;99559.34;6249145;23;19996;-84
2022/06/22 08:57:46;;;;;;;7.70;2.78;;;;;;;21.49;50.16;99554.34;6249464;23;20324;-84
2022/06/22 09:00:38;;;;;;;9.57;2.58;;;;;;;21.61;50.35;99547.19;6249416;23;20025;-84
2022/06/22 09:03:17;;;;;;;6.63;3.88;;;;;;;21.61;49.66;99547.19;6248915;23;20057;-85
2022/06/22 09:06:20;;;;;;;6.05;2.53;;;;;;;21.66;49.34;99552.53;6249686;23;20292;-85
2022/06/22 09:09:01;;;;;;;6.35;2.70;;;;;;;21.76;49.42;99546.53;6249367;23;20294;-85
2022/06/22 09:11:33;;;;;;;4.22;2.42;;;;;;;21.84;48.95;99541.22;6248973;23;20078;-84
2022/06/22 09:14:32;;;;;;;6.05;2.58;;;;;;;22.06;48.60;99547.44;6249163;23;20000;-84
2022/06/22 09:17:26;;;;;;;12.95;4.80;;;;;;;22.25;48.81;99546.84;6248998;23;19996;-84
2022/06/22 09:20:19;;;;;;;8.52;2.05;;;;;;;22.23;48.05;99543.63;6245580;23;20083;-85
2022/06/22 09:22:50;;;;;;;4.30;1.20;;;;;;;22.46;46.30;99545.88;6249219;23;20023;-84
2022/06/22 09:25:45;;;;;;;5.35;2.25;;;;;;;22.63;45.03;99553.13;6247365;23;20000;-84
2022/06/22 09:28:26;;;;;;;4.05;1.52;;;;;;;22.83;45.17;99558.84;6249679;23;19992;-85
2022/06/22 09:31:19;;;;;;;4.75;1.98;;;;;;;22.70;46.46;99556.13;6249259;23;20397;-84
2022/06/22 09:34:18;;;;;;;7.93;2.67;;;;;;;22.88;45.97;99555.03;6248792;23;20007;-84
2022/06/22 09:37:11;;;;;;;13.73;2.90;;;;;;;22.89;44.27;99563.00;6248648;23;20011;-84
2022/06/22 09:39:51;;;;;;;3.70;1.88;;;;;;;22.94;45.81;99565.50;6248683;23;20000;-83
2022/06/22 09:42:31;;;;;;;4.05;2.58;;;;;;;23.03;44.63;99568.16;6248419;23;20420;-83
2022/06/22 09:45:13;;;;;;;7.03;2.92;;;;;;;23.08;45.74;99569.88;6248968;23;20004;-83
2022/06/22 09:47:57;;;;;;;6.57;2.53;;;;;;;23.30;43.79;99582.38;6248986;23;20007;-83
2022/06/22 09:50:37;;;;;;;3.95;2.10;;;;;;;23.58;41.39;99575.16;6248715;23;20050;-83
2022/06/22 09:53:27;;;;;;;6.05;2.30;;;;;;;23.54;43.93;99585.38;6248836;23;20038;-84
2022/06/22 09:56:30;;;;;;;4.35;1.58;;;;;;;23.72;42.57;99580.28;6248943;23;20011;-84
2022/06/22 09:59:34;;;;;;;4.65;2.08;;;;;;;23.70;44.27;99565.91;6248275;23;20069;-84
2022/06/22 10:02:18;;;;;;;4.15;1.65;;;;;;;23.64;43.81;99559.00;6235635;23;20004;-83
2022/06/22 10:05:06;;;;;;;4.07;1.67;;;;;;;23.84;42.83;99559.09;6249146;23;20019;-83
2022/06/22 10:07:35;;;;;;;4.10;1.80;;;;;;;23.63;42.42;99555.44;6248713;23;20294;-83
2022/06/22 10:10:38;;;;;;;5.15;1.20;;;;;;;23.70;43.62;99554.78;6248928;23;20001;-83
2022/06/22 10:13:31;;;;;;;7.47;2.92;;;;;;;23.78;43.41;99550.19;6201186;23;20012;-84
2022/06/22 10:16:18;;;;;;;3.95;1.80;;;;;;;23.66;42.88;99548.31;6248454;23;20030;-84
2022/06/22 10:18:52;;;;;;;4.40;2.05;;;;;;;23.87;43.10;99538.88;6221534;23;20030;-83
2022/06/22 10:21:45;;;;;;;3.75;1.98;;;;;;;24.05;43.60;99536.50;6247396;23;19999;-82
2022/06/22 10:24:26;;;;;;;4.35;2.53;;;;;;;24.24;42.54;99527.44;6248465;23;20077;-81
2022/06/22 10:27:13;;;;;;;13.95;2.92;;;;;;;24.25;42.65;99526.25;6247924;23;20457;-82
2022/06/22 10:30:02;;;;;;;3.60;1.80;;;;;;;24.16;42.51;99524.81;6247736;23;20035;-83
2022/06/22 10:32:35;;;;;;;8.13;2.00;;;;;;;24.25;42.44;99520.69;6248161;23;20003;-82
2022/06/22 10:35:22;;;;;;;4.43;2.08;;;;;;;24.20;42.58;99520.13;6247773;23;20007;-81
2022/06/22 10:38:17;;;;;;;4.13;2.03;;;;;;;24.55;41.37;99518.50;6220785;23;19996;-82
2022/06/22 10:47:04;;;;;;;3.33;1.85;;;;;;;24.82;41.29;99497.13;6154868;23;20109;-82
2022/06/22 10:50:03;;;;;;;5.13;2.60;;;;;;;24.82;41.97;99494.34;6155143;23;20029;-83
2022/06/22 10:52:51;;;;;;;5.20;2.78;;;;;;;25.12;40.86;99495.69;6218426;23;20000;-83
2022/06/22 10:55:40;;;;;;;3.92;2.40;;;;;;;25.03;40.39;99495.97;6248473;23;20294;-85
2022/06/22 10:58:30;;;;;;;8.38;2.65;;;;;;;25.22;39.07;99505.44;6247796;23;20453;-85
2022/06/22 11:01:16;;;;;;;7.82;2.15;;;;;;;25.32;39.57;99500.44;6247608;23;20046;-85
2022/06/22 11:04:16;;;;;;;3.85;1.88;;;;;;;25.16;39.62;99504.94;6248301;23;20007;-84
2022/06/22 11:07:03;;;;;;;14.15;2.58;;;;;;;25.37;39.10;99505.69;6221480;23;20012;-84
2022/06/22 11:09:57;;;;;;;3.22;1.80;;;;;;;25.20;39.52;99505.03;6220787;23;20000;-83
2022/06/22 11:12:57;;;;;;;4.55;2.28;;;;;;;25.21;40.68;99512.19;6247139;23;20426;-84
2022/06/22 11:15:58;;;;;;;6.75;2.20;;;;;;;25.33;40.03;99499.22;6169065;23;19997;-84
2022/06/22 11:18:52;;;;;;;5.78;1.70;;;;;;;25.24;40.22;99507.88;6232756;23;20071;-84
2022/06/22 11:21:45;;;;;;;3.33;1.98;;;;;;;25.35;39.45;99506.06;6248088;23;20011;-84
2022/06/22 11:24:27;;;;;;;5.32;2.75;;;;;;;25.88;36.94;99512.09;6247299;23;20058;-84
2022/06/22 11:32:49;;;;;;;3.20;1.70;;;;;;;25.64;38.08;99508.50;6257390;23;20430;-84
2022/06/22 11:35:24;;;;;;;5.15;2.00;;;;;;;25.97;36.00;99498.69;6247575;23;20014;-84
2022/06/22 11:38:08;;;;;;;4.63;2.58;;;;;;;25.96;35.55;99497.06;6247082;23;19996;-83
2022/06/22 11:41:03;;;;;;;3.35;1.88;;;;;;;26.18;36.79;99502.94;6247476;23;20031;-84
2022/06/22 11:43:47;;;;;;;2.72;1.70;;;;;;;25.95;37.26;99505.81;6247556;23;20038;-84
2022/06/22 11:46:22;;;;;;;9.98;2.03;;;;;;;26.25;35.74;99496.66;6247502;22;20406;-83
2022/06/22 11:49:07;;;;;;;8.27;2.10;;;;;;;26.29;34.69;99502.28;6247417;23;20050;-83
2022/06/22 11:52:09;;;;;;;18.67;3.00;;;;;;;26.88;34.17;99499.00;6248199;23;20015;-83
2022/06/22 11:54:51;;;;;;;6.03;2.10;;;;;;;26.53;35.43;99497.41;6247758;23;20000;-85
2022/06/22 11:57:40;;;;;;;28.45;3.53;;;;;;;26.28;36.56;99501.47;6246880;23;20018;-84
2022/06/22 12:00:29;;;;;;;5.20;2.20;;;;;;;26.45;36.34;99510.47;6247272;23;20000;-84
2022/06/22 12:03:24;;;;;;;10.45;3.35;;;;;;;26.43;36.73;99496.91;6215182;23;20004;-83
2022/06/22 12:06:10;;;;;;;6.20;2.92;;;;;;;26.23;37.22;99504.59;6246869;23;20007;-84
2022/06/22 12:08:41;;;;;;;6.25;1.65;;;;;;;26.27;36.14;99504.63;6247330;23;20004;-84
2022/06/22 12:11:15;;;;;;;5.18;2.15;;;;;;;26.82;36.32;99497.72;6247240;23;20000;-83
2022/06/22 12:17:13;;;;;;;51.10;5.03;;;;;;;26.83;35.90;99504.91;6154351;23;20029;-83
2022/06/22 12:19:57;;;;;;;7.13;2.45;;;;;;;27.23;34.92;99508.16;6246467;23;20000;-83
2022/06/22 12:22:55;;;;;;;23.48;5.80;;;;;;;27.19;35.45;99506.50;6246875;23;20421;-80
2022/06/22 12:25:51;;;;;;;6.35;2.38;;;;;;;27.05;34.76;99493.97;6239328;22;20507;-80
2022/06/22 12:28:38;;;;;;;6.05;1.85;;;;;;;27.07;33.10;99488.84;6240168;23;20005;-79
2022/06/22 12:31:15;;;;;;;7.47;2.33;;;;;;;27.70;33.67;99490.13;6241409;23;20016;-87
2022/06/22 12:33:50;;;;;;;5.15;1.58;;;;;;;27.32;30.77;99493.81;6241620;23;20443;-87
2022/06/22 12:36:26;;;;;;;4.05;1.90;;;;;;;27.51;30.42;99494.78;6240654;23;20004;-74
2022/06/22 12:38:57;;;;;;;4.80;1.55;;;;;;;27.77;29.93;99489.38;6213158;23;20039;-74
2022/06/22 12:42:00;;;;;;;4.18;1.55;;;;;;;27.95;30.56;99489.50;6239914;23;20444;-74
2022/06/22 12:44:52;;;;;;;15.45;3.08;;;;;;;28.43;29.78;99494.19;6240073;23;20010;-75